sensor_id;sensor_type;location;lat;lon;timestamp;temperature;humidity
45060;DHT22;30799;49.060;9.312;2022-11-11T00:01:13;20.10;66.30
45060;DHT22;30799;49.060;9.312;2022-11-11T00:03:41;20.10;66.30
45060;DHT22;30799;49.060;9.312;2022-11-11T00:06:10;20.10;66.30
45060;DHT22;30799;49.060;9.312;2022-11-11T00:08:37;20.10;66.30
45060;DHT22;30799;49.060;9.312;2022-11-11T00:11:11;20.10;66.30
45060;DHT22;30799;49.060;9.312;2022-11-11T00:13:39;20.10;66.30
45060;DHT22;30799;49.060;9.312;2022-11-11T00:18:41;20.10;66.30
45060;DHT22;30799;49.060;9.312;2022-11-11T00:21:27;20.10;66.20
45060;DHT22;30799;49.060;9.312;2022-11-11T00:24:25;20.10;66.10
45060;DHT22;30799;49.060;9.312;2022-11-11T00:27:11;20.20;66.20
45060;DHT22;30799;49.060;9.312;2022-11-11T00:29:39;20.20;66.20
45060;DHT22;30799;49.060;9.312;2022-11-11T00:32:07;20.20;66.10
45060;DHT22;30799;49.060;9.312;2022-11-11T00:34:51;20.20;66.10
45060;DHT22;30799;49.060;9.312;2022-11-11T00:37:38;20.20;66.10
45060;DHT22;30799;49.060;9.312;2022-11-11T00:40:06;20.20;66.10
45060;DHT22;30799;49.060;9.312;2022-11-11T00:42:33;20.20;66.10
45060;DHT22;30799;49.060;9.312;2022-11-11T00:44:59;20.20;66.00
45060;DHT22;30799;49.060;9.312;2022-11-11T00:47:26;20.20;66.00
45060;DHT22;30799;49.060;9.312;2022-11-11T00:50:17;20.20;66.00
45060;DHT22;30799;49.060;9.312;2022-11-11T00:53:05;20.20;66.00
45060;DHT22;30799;49.060;9.312;2022-11-11T00:55:33;20.20;65.90
45060;DHT22;30799;49.060;9.312;2022-11-11T00:58:00;20.20;65.90
45060;DHT22;30799;49.060;9.312;2022-11-11T01:00:27;20.20;65.90
45060;DHT22;30799;49.060;9.312;2022-11-11T01:02:53;20.20;65.80
45060;DHT22;30799;49.060;9.312;2022-11-11T01:05:20;20.20;65.80
45060;DHT22;30799;49.060;9.312;2022-11-11T01:07:48;20.30;65.80
45060;DHT22;30799;49.060;9.312;2022-11-11T01:10:19;20.20;65.80
45060;DHT22;30799;49.060;9.312;2022-11-11T01:13:06;20.30;65.80
45060;DHT22;30799;49.060;9.312;2022-11-11T01:15:40;20.30;65.80
45060;DHT22;30799;49.060;9.312;2022-11-11T01:18:09;20.30;65.70
45060;DHT22;30799;49.060;9.312;2022-11-11T01:20:37;20.30;65.80
45060;DHT22;30799;49.060;9.312;2022-11-11T01:23:05;20.30;65.70
45060;DHT22;30799;49.060;9.312;2022-11-11T01:25:33;20.30;65.70
45060;DHT22;30799;49.060;9.312;2022-11-11T01:28:01;20.30;65.70
45060;DHT22;30799;49.060;9.312;2022-11-11T01:30:30;20.30;65.70
45060;DHT22;30799;49.060;9.312;2022-11-11T01:32:57;20.30;65.70
45060;DHT22;30799;49.060;9.312;2022-11-11T01:35:24;20.30;65.70
45060;DHT22;30799;49.060;9.312;2022-11-11T01:37:51;20.30;65.70
45060;DHT22;30799;49.060;9.312;2022-11-11T01:40:17;20.30;65.70
45060;DHT22;30799;49.060;9.312;2022-11-11T01:48:43;20.30;65.70
45060;DHT22;30799;49.060;9.312;2022-11-11T01:51:47;20.30;65.70
45060;DHT22;30799;49.060;9.312;2022-11-11T01:54:20;20.30;65.70
45060;DHT22;30799;49.060;9.312;2022-11-11T01:56:52;20.30;65.70
45060;DHT22;30799;49.060;9.312;2022-11-11T01:59:19;20.30;65.70
45060;DHT22;30799;49.060;9.312;2022-11-11T02:01:47;20.40;65.70
45060;DHT22;30799;49.060;9.312;2022-11-11T02:04:15;20.30;65.70
45060;DHT22;30799;49.060;9.312;2022-11-11T02:07:04;20.30;65.70
45060;DHT22;30799;49.060;9.312;2022-11-11T02:09:33;20.40;65.70
45060;DHT22;30799;49.060;9.312;2022-11-11T02:12:03;20.40;65.70
45060;DHT22;30799;49.060;9.312;2022-11-11T02:14:52;20.40;65.70
45060;DHT22;30799;49.060;9.312;2022-11-11T02:17:19;20.40;65.70
45060;DHT22;30799;49.060;9.312;2022-11-11T02:19:56;20.40;65.70
45060;DHT22;30799;49.060;9.312;2022-11-11T02:22:35;20.40;65.70
45060;DHT22;30799;49.060;9.312;2022-11-11T02:25:06;20.30;65.60
45060;DHT22;30799;49.060;9.312;2022-11-11T02:27:36;20.40;65.70
45060;DHT22;30799;49.060;9.312;2022-11-11T02:30:06;20.30;65.60
45060;DHT22;30799;49.060;9.312;2022-11-11T02:32:32;20.40;65.70
45060;DHT22;30799;49.060;9.312;2022-11-11T02:34:59;20.40;65.70
45060;DHT22;30799;49.060;9.312;2022-11-11T02:37:26;20.40;65.70
45060;DHT22;30799;49.060;9.312;2022-11-11T02:39:58;20.30;65.70
45060;DHT22;30799;49.060;9.312;2022-11-11T02:42:33;20.40;65.80
45060;DHT22;30799;49.060;9.312;2022-11-11T02:45:00;20.40;65.70
45060;DHT22;30799;49.060;9.312;2022-11-11T02:47:27;20.40;65.70
45060;DHT22;30799;49.060;9.312;2022-11-11T02:49:54;20.40;65.70
45060;DHT22;30799;49.060;9.312;2022-11-11T02:52:21;20.30;65.70
45060;DHT22;30799;49.060;9.312;2022-11-11T02:54:48;20.40;65.70
45060;DHT22;30799;49.060;9.312;2022-11-11T02:57:15;20.30;65.70
45060;DHT22;30799;49.060;9.312;2022-11-11T02:59:43;20.30;65.70
45060;DHT22;30799;49.060;9.312;2022-11-11T03:02:10;20.40;65.80
45060;DHT22;30799;49.060;9.312;2022-11-11T03:04:37;20.30;65.70
45060;DHT22;30799;49.060;9.312;2022-11-11T03:07:04;20.40;65.80
45060;DHT22;30799;49.060;9.312;2022-11-11T03:09:31;20.40;65.80
45060;DHT22;30799;49.060;9.312;2022-11-11T03:11:58;20.40;65.80
45060;DHT22;30799;49.060;9.312;2022-11-11T03:14:25;20.40;65.80
45060;DHT22;30799;49.060;9.312;2022-11-11T03:16:52;20.40;65.80
45060;DHT22;30799;49.060;9.312;2022-11-11T03:19:38;20.40;65.80
45060;DHT22;30799;49.060;9.312;2022-11-11T03:22:04;20.40;65.80
45060;DHT22;30799;49.060;9.312;2022-11-11T03:24:51;20.40;65.80
45060;DHT22;30799;49.060;9.312;2022-11-11T03:27:36;20.40;65.70
45060;DHT22;30799;49.060;9.312;2022-11-11T03:30:03;20.40;65.70
45060;DHT22;30799;49.060;9.312;2022-11-11T03:32:30;20.40;65.70
45060;DHT22;30799;49.060;9.312;2022-11-11T03:34:56;20.40;65.70
45060;DHT22;30799;49.060;9.312;2022-11-11T03:37:23;20.40;65.60
45060;DHT22;30799;49.060;9.312;2022-11-11T03:40:09;20.40;65.60
45060;DHT22;30799;49.060;9.312;2022-11-11T03:46:04;20.40;65.60
45060;DHT22;30799;49.060;9.312;2022-11-11T03:48:32;20.40;65.60
45060;DHT22;30799;49.060;9.312;2022-11-11T03:50:59;20.40;65.60
45060;DHT22;30799;49.060;9.312;2022-11-11T03:53:26;20.40;65.60
45060;DHT22;30799;49.060;9.312;2022-11-11T03:55:53;20.40;65.50
45060;DHT22;30799;49.060;9.312;2022-11-11T03:58:19;20.40;65.50
45060;DHT22;30799;49.060;9.312;2022-11-11T04:00:46;20.30;65.40
45060;DHT22;30799;49.060;9.312;2022-11-11T04:05:59;20.40;65.50
45060;DHT22;30799;49.060;9.312;2022-11-11T04:08:44;20.40;65.40
45060;DHT22;30799;49.060;9.312;2022-11-11T04:14:00;20.40;65.40
45060;DHT22;30799;49.060;9.312;2022-11-11T04:16:47;20.50;65.50
45060;DHT22;30799;49.060;9.312;2022-11-11T04:19:13;20.50;65.40
45060;DHT22;30799;49.060;9.312;2022-11-11T04:21:58;20.50;65.50
45060;DHT22;30799;49.060;9.312;2022-11-11T04:24:25;20.50;65.40
45060;DHT22;30799;49.060;9.312;2022-11-11T04:27:13;20.50;65.40
45060;DHT22;30799;49.060;9.312;2022-11-11T04:29:40;20.50;65.40
45060;DHT22;30799;49.060;9.312;2022-11-11T04:32:15;20.50;65.40
45060;DHT22;30799;49.060;9.312;2022-11-11T04:35:03;20.50;65.40
45060;DHT22;30799;49.060;9.312;2022-11-11T04:37:33;20.50;65.40
45060;DHT22;30799;49.060;9.312;2022-11-11T04:39:59;20.50;65.40
45060;DHT22;30799;49.060;9.312;2022-11-11T04:42:45;20.50;65.40
45060;DHT22;30799;49.060;9.312;2022-11-11T04:45:12;20.50;65.40
45060;DHT22;30799;49.060;9.312;2022-11-11T04:48:08;20.50;65.30
45060;DHT22;30799;49.060;9.312;2022-11-11T04:50:40;20.50;65.30
45060;DHT22;30799;49.060;9.312;2022-11-11T04:53:09;20.50;65.30
45060;DHT22;30799;49.060;9.312;2022-11-11T04:55:37;20.50;65.40
45060;DHT22;30799;49.060;9.312;2022-11-11T04:58:24;20.50;65.30
45060;DHT22;30799;49.060;9.312;2022-11-11T05:00:51;20.50;65.30
45060;DHT22;30799;49.060;9.312;2022-11-11T05:03:18;20.50;66.10
45060;DHT22;30799;49.060;9.312;2022-11-11T05:05:54;20.60;65.40
45060;DHT22;30799;49.060;9.312;2022-11-11T05:08:45;20.50;65.30
45060;DHT22;30799;49.060;9.312;2022-11-11T05:11:28;20.50;65.30
45060;DHT22;30799;49.060;9.312;2022-11-11T05:13:57;20.50;65.20
45060;DHT22;30799;49.060;9.312;2022-11-11T05:16:45;20.60;65.40
45060;DHT22;30799;49.060;9.312;2022-11-11T05:19:31;20.60;65.30
45060;DHT22;30799;49.060;9.312;2022-11-11T05:22:28;20.60;65.30
45060;DHT22;30799;49.060;9.312;2022-11-11T05:24:56;20.60;65.30
45060;DHT22;30799;49.060;9.312;2022-11-11T05:27:41;20.60;65.30
45060;DHT22;30799;49.060;9.312;2022-11-11T05:30:10;20.60;65.30
45060;DHT22;30799;49.060;9.312;2022-11-11T05:32:37;20.60;65.20
45060;DHT22;30799;49.060;9.312;2022-11-11T05:35:05;20.60;65.20
45060;DHT22;30799;49.060;9.312;2022-11-11T05:37:32;20.60;65.20
45060;DHT22;30799;49.060;9.312;2022-11-11T05:39:58;20.60;65.20
45060;DHT22;30799;49.060;9.312;2022-11-11T05:42:25;20.60;65.20
45060;DHT22;30799;49.060;9.312;2022-11-11T05:44:52;20.60;65.20
45060;DHT22;30799;49.060;9.312;2022-11-11T05:47:18;20.60;65.20
45060;DHT22;30799;49.060;9.312;2022-11-11T05:49:45;20.60;65.20
45060;DHT22;30799;49.060;9.312;2022-11-11T05:52:13;20.60;65.20
45060;DHT22;30799;49.060;9.312;2022-11-11T05:54:42;20.60;65.10
45060;DHT22;30799;49.060;9.312;2022-11-11T05:57:08;20.70;65.20
45060;DHT22;30799;49.060;9.312;2022-11-11T05:59:35;20.60;65.20
45060;DHT22;30799;49.060;9.312;2022-11-11T06:02:02;20.70;65.20
45060;DHT22;30799;49.060;9.312;2022-11-11T06:04:28;20.70;66.00
45060;DHT22;30799;49.060;9.312;2022-11-11T06:06:55;20.70;65.10
45060;DHT22;30799;49.060;9.312;2022-11-11T06:09:22;20.70;65.20
45060;DHT22;30799;49.060;9.312;2022-11-11T06:11:48;19.60;51.00
45060;DHT22;30799;49.060;9.312;2022-11-11T06:14:15;17.50;51.30
45060;DHT22;30799;49.060;9.312;2022-11-11T06:16:41;16.40;52.90
45060;DHT22;30799;49.060;9.312;2022-11-11T06:19:08;15.70;53.40
45060;DHT22;30799;49.060;9.312;2022-11-11T06:21:35;16.50;57.30
45060;DHT22;30799;49.060;9.312;2022-11-11T06:24:21;17.80;58.00
45060;DHT22;30799;49.060;9.312;2022-11-11T06:26:55;18.80;58.50
45060;DHT22;30799;49.060;9.312;2022-11-11T06:29:22;19.30;58.40
45060;DHT22;30799;49.060;9.312;2022-11-11T06:31:49;19.50;57.50
45060;DHT22;30799;49.060;9.312;2022-11-11T06:34:15;18.90;54.30
45060;DHT22;30799;49.060;9.312;2022-11-11T06:36:42;19.10;56.60
45060;DHT22;30799;49.060;9.312;2022-11-11T06:39:09;19.40;56.90
45060;DHT22;30799;49.060;9.312;2022-11-11T06:41:35;19.60;57.40
45060;DHT22;30799;49.060;9.312;2022-11-11T06:44:02;19.80;58.10
45060;DHT22;30799;49.060;9.312;2022-11-11T06:46:28;20.00;58.00
45060;DHT22;30799;49.060;9.312;2022-11-11T06:48:55;20.00;58.00
45060;DHT22;30799;49.060;9.312;2022-11-11T06:51:22;20.00;58.40
45060;DHT22;30799;49.060;9.312;2022-11-11T06:53:48;20.10;58.80
45060;DHT22;30799;49.060;9.312;2022-11-11T06:56:15;20.10;59.10
45060;DHT22;30799;49.060;9.312;2022-11-11T06:58:42;20.10;59.30
45060;DHT22;30799;49.060;9.312;2022-11-11T07:01:08;20.20;59.50
45060;DHT22;30799;49.060;9.312;2022-11-11T07:03:35;20.20;59.60
45060;DHT22;30799;49.060;9.312;2022-11-11T07:06:03;20.20;59.80
45060;DHT22;30799;49.060;9.312;2022-11-11T07:08:31;20.20;59.90
45060;DHT22;30799;49.060;9.312;2022-11-11T07:10:57;20.30;60.00
45060;DHT22;30799;49.060;9.312;2022-11-11T07:13:30;20.30;60.00
45060;DHT22;30799;49.060;9.312;2022-11-11T07:15:57;20.40;60.20
45060;DHT22;30799;49.060;9.312;2022-11-11T07:18:23;20.50;60.00
45060;DHT22;30799;49.060;9.312;2022-11-11T07:20:50;20.60;59.80
45060;DHT22;30799;49.060;9.312;2022-11-11T07:23:17;20.60;60.00
45060;DHT22;30799;49.060;9.312;2022-11-11T07:25:44;20.70;59.70
45060;DHT22;30799;49.060;9.312;2022-11-11T07:28:10;20.80;59.80
45060;DHT22;30799;49.060;9.312;2022-11-11T07:30:38;20.90;59.60
45060;DHT22;30799;49.060;9.312;2022-11-11T07:33:05;20.90;59.80
45060;DHT22;30799;49.060;9.312;2022-11-11T07:35:32;20.90;60.30
45060;DHT22;30799;49.060;9.312;2022-11-11T07:37:59;20.90;60.70
45060;DHT22;30799;49.060;9.312;2022-11-11T07:40:25;20.90;61.00
45060;DHT22;30799;49.060;9.312;2022-11-11T07:42:52;20.80;61.10
45060;DHT22;30799;49.060;9.312;2022-11-11T07:45:18;20.90;61.30
45060;DHT22;30799;49.060;9.312;2022-11-11T07:47:45;20.90;61.50
45060;DHT22;30799;49.060;9.312;2022-11-11T07:50:13;20.90;61.50
45060;DHT22;30799;49.060;9.312;2022-11-11T07:52:40;20.90;61.60
45060;DHT22;30799;49.060;9.312;2022-11-11T07:55:07;20.90;61.70
45060;DHT22;30799;49.060;9.312;2022-11-11T07:57:34;20.90;61.70
45060;DHT22;30799;49.060;9.312;2022-11-11T08:00:01;21.00;61.80
45060;DHT22;30799;49.060;9.312;2022-11-11T08:02:28;21.00;61.80
45060;DHT22;30799;49.060;9.312;2022-11-11T08:04:55;21.00;62.00
45060;DHT22;30799;49.060;9.312;2022-11-11T08:07:22;21.10;61.80
45060;DHT22;30799;49.060;9.312;2022-11-11T08:09:50;21.20;61.60
45060;DHT22;30799;49.060;9.312;2022-11-11T08:12:16;21.30;61.50
45060;DHT22;30799;49.060;9.312;2022-11-11T08:15:02;21.30;61.30
45060;DHT22;30799;49.060;9.312;2022-11-11T08:17:37;21.40;61.40
45060;DHT22;30799;49.060;9.312;2022-11-11T08:20:07;21.40;61.50
45060;DHT22;30799;49.060;9.312;2022-11-11T08:22:38;21.40;61.50
45060;DHT22;30799;49.060;9.312;2022-11-11T08:25:07;21.50;61.50
45060;DHT22;30799;49.060;9.312;2022-11-11T08:27:35;21.50;61.60
45060;DHT22;30799;49.060;9.312;2022-11-11T08:30:03;21.50;61.60
45060;DHT22;30799;49.060;9.312;2022-11-11T08:32:31;21.60;61.70
45060;DHT22;30799;49.060;9.312;2022-11-11T08:34:57;21.60;61.80
45060;DHT22;30799;49.060;9.312;2022-11-11T08:37:24;21.60;61.70
45060;DHT22;30799;49.060;9.312;2022-11-11T08:39:50;21.60;61.80
45060;DHT22;30799;49.060;9.312;2022-11-11T08:42:18;21.80;62.00
45060;DHT22;30799;49.060;9.312;2022-11-11T08:44:44;21.70;62.00
45060;DHT22;30799;49.060;9.312;2022-11-11T08:47:11;21.70;62.10
45060;DHT22;30799;49.060;9.312;2022-11-11T08:49:37;21.70;62.10
45060;DHT22;30799;49.060;9.312;2022-11-11T08:52:04;21.70;62.20
45060;DHT22;30799;49.060;9.312;2022-11-11T08:54:32;21.70;62.10
45060;DHT22;30799;49.060;9.312;2022-11-11T08:56:59;21.70;62.20
45060;DHT22;30799;49.060;9.312;2022-11-11T08:59:25;21.80;62.40
45060;DHT22;30799;49.060;9.312;2022-11-11T09:01:52;21.80;62.40
45060;DHT22;30799;49.060;9.312;2022-11-11T09:04:18;21.80;62.50
45060;DHT22;30799;49.060;9.312;2022-11-11T09:07:07;20.90;52.70
45060;DHT22;30799;49.060;9.312;2022-11-11T09:09:34;20.00;56.10
45060;DHT22;30799;49.060;9.312;2022-11-11T09:12:01;20.50;60.80
45060;DHT22;30799;49.060;9.312;2022-11-11T09:14:27;20.70;61.50
45060;DHT22;30799;49.060;9.312;2022-11-11T09:16:54;21.00;61.30
45060;DHT22;30799;49.060;9.312;2022-11-11T09:19:21;21.10;60.70
45060;DHT22;30799;49.060;9.312;2022-11-11T09:21:49;21.20;60.50
45060;DHT22;30799;49.060;9.312;2022-11-11T09:24:15;21.30;60.50
45060;DHT22;30799;49.060;9.312;2022-11-11T09:26:42;21.30;60.30
45060;DHT22;30799;49.060;9.312;2022-11-11T09:29:09;21.30;60.50
45060;DHT22;30799;49.060;9.312;2022-11-11T09:31:35;21.40;60.60
45060;DHT22;30799;49.060;9.312;2022-11-11T09:34:11;21.40;60.70
45060;DHT22;30799;49.060;9.312;2022-11-11T09:36:38;21.40;60.70
45060;DHT22;30799;49.060;9.312;2022-11-11T09:39:05;21.40;60.70
45060;DHT22;30799;49.060;9.312;2022-11-11T09:44:04;21.50;61.00
45060;DHT22;30799;49.060;9.312;2022-11-11T09:49:37;21.40;60.90
45060;DHT22;30799;49.060;9.312;2022-11-11T09:52:21;21.40;61.20
45060;DHT22;30799;49.060;9.312;2022-11-11T09:54:56;21.40;61.30
45060;DHT22;30799;49.060;9.312;2022-11-11T09:57:41;21.50;61.50
45060;DHT22;30799;49.060;9.312;2022-11-11T10:00:20;21.50;61.60
45060;DHT22;30799;49.060;9.312;2022-11-11T10:02:57;21.50;61.70
45060;DHT22;30799;49.060;9.312;2022-11-11T10:05:36;21.50;61.70
45060;DHT22;30799;49.060;9.312;2022-11-11T10:08:14;21.50;61.80
45060;DHT22;30799;49.060;9.312;2022-11-11T10:10:48;21.50;61.80
45060;DHT22;30799;49.060;9.312;2022-11-11T10:13:36;21.50;61.90
45060;DHT22;30799;49.060;9.312;2022-11-11T10:16:29;21.50;62.00
45060;DHT22;30799;49.060;9.312;2022-11-11T10:19:10;21.50;62.00
45060;DHT22;30799;49.060;9.312;2022-11-11T10:21:55;21.50;62.00
45060;DHT22;30799;49.060;9.312;2022-11-11T10:24:47;21.60;62.20
45060;DHT22;30799;49.060;9.312;2022-11-11T10:27:19;21.60;62.20
45060;DHT22;30799;49.060;9.312;2022-11-11T10:29:46;21.60;62.30
45060;DHT22;30799;49.060;9.312;2022-11-11T10:32:31;21.60;62.40
45060;DHT22;30799;49.060;9.312;2022-11-11T10:35:15;21.60;62.40
45060;DHT22;30799;49.060;9.312;2022-11-11T10:37:43;21.60;62.40
45060;DHT22;30799;49.060;9.312;2022-11-11T10:40:20;21.60;62.40
45060;DHT22;30799;49.060;9.312;2022-11-11T10:42:47;21.60;62.60
45060;DHT22;30799;49.060;9.312;2022-11-11T10:45:25;21.60;62.60
45060;DHT22;30799;49.060;9.312;2022-11-11T10:48:12;21.60;62.60
45060;DHT22;30799;49.060;9.312;2022-11-11T10:50:44;21.60;62.70
45060;DHT22;30799;49.060;9.312;2022-11-11T10:55:48;21.70;62.80
45060;DHT22;30799;49.060;9.312;2022-11-11T10:58:27;21.60;62.70
45060;DHT22;30799;49.060;9.312;2022-11-11T11:00:56;21.70;62.60
45060;DHT22;30799;49.060;9.312;2022-11-11T11:03:35;21.60;62.70
45060;DHT22;30799;49.060;9.312;2022-11-11T11:11:41;21.50;58.70
45060;DHT22;30799;49.060;9.312;2022-11-11T11:14:14;21.30;61.40
45060;DHT22;30799;49.060;9.312;2022-11-11T11:16:47;21.30;61.70
45060;DHT22;30799;49.060;9.312;2022-11-11T11:19:20;21.40;60.30
45060;DHT22;30799;49.060;9.312;2022-11-11T11:21:49;21.60;61.30
45060;DHT22;30799;49.060;9.312;2022-11-11T11:24:30;21.60;61.50
45060;DHT22;30799;49.060;9.312;2022-11-11T11:27:00;21.60;60.90
45060;DHT22;30799;49.060;9.312;2022-11-11T11:31:55;21.50;61.50
45060;DHT22;30799;49.060;9.312;2022-11-11T11:34:53;21.40;61.60
45060;DHT22;30799;49.060;9.312;2022-11-11T11:37:22;21.60;61.70
45060;DHT22;30799;49.060;9.312;2022-11-11T11:40:04;21.70;61.80
45060;DHT22;30799;49.060;9.312;2022-11-11T11:42:35;21.70;61.80
45060;DHT22;30799;49.060;9.312;2022-11-11T11:45:21;21.70;61.80
45060;DHT22;30799;49.060;9.312;2022-11-11T11:51:12;21.70;61.50
45060;DHT22;30799;49.060;9.312;2022-11-11T11:56:45;22.10;61.60
45060;DHT22;30799;49.060;9.312;2022-11-11T11:59:19;22.10;61.70
45060;DHT22;30799;49.060;9.312;2022-11-11T12:02:04;22.20;61.80
45060;DHT22;30799;49.060;9.312;2022-11-11T12:07:31;21.70;61.60
45060;DHT22;30799;49.060;9.312;2022-11-11T12:10:07;21.70;61.70
45060;DHT22;30799;49.060;9.312;2022-11-11T12:15:32;21.80;62.10
45060;DHT22;30799;49.060;9.312;2022-11-11T12:20:58;21.80;62.00
45060;DHT22;30799;49.060;9.312;2022-11-11T12:26:21;21.80;62.20
45060;DHT22;30799;49.060;9.312;2022-11-11T12:29:05;21.80;62.20
45060;DHT22;30799;49.060;9.312;2022-11-11T12:36:45;21.90;62.30
45060;DHT22;30799;49.060;9.312;2022-11-11T12:49:48;21.90;62.50
45060;DHT22;30799;49.060;9.312;2022-11-11T13:00:09;21.90;62.70
45060;DHT22;30799;49.060;9.312;2022-11-11T13:02:45;22.00;63.50
45060;DHT22;30799;49.060;9.312;2022-11-11T13:05:18;21.80;55.90
45060;DHT22;30799;49.060;9.312;2022-11-11T13:13:00;21.70;58.70
45060;DHT22;30799;49.060;9.312;2022-11-11T13:15:28;21.70;58.90
45060;DHT22;30799;49.060;9.312;2022-11-11T13:17:57;21.70;59.50
45060;DHT22;30799;49.060;9.312;2022-11-11T13:20:30;21.70;59.80
45060;DHT22;30799;49.060;9.312;2022-11-11T13:23:01;21.70;59.80
45060;DHT22;30799;49.060;9.312;2022-11-11T13:25:29;22.00;60.00
45060;DHT22;30799;49.060;9.312;2022-11-11T13:28:08;21.70;59.90
45060;DHT22;30799;49.060;9.312;2022-11-11T13:33:25;21.80;60.40
45060;DHT22;30799;49.060;9.312;2022-11-11T13:36:00;21.70;60.30
45060;DHT22;30799;49.060;9.312;2022-11-11T13:38:34;21.70;60.40
45060;DHT22;30799;49.060;9.312;2022-11-11T13:41:03;21.70;60.40
45060;DHT22;30799;49.060;9.312;2022-11-11T13:43:32;21.70;60.50
45060;DHT22;30799;49.060;9.312;2022-11-11T13:45:59;21.70;60.60
45060;DHT22;30799;49.060;9.312;2022-11-11T13:51:01;21.70;60.70
45060;DHT22;30799;49.060;9.312;2022-11-11T13:53:35;21.70;60.70
45060;DHT22;30799;49.060;9.312;2022-11-11T13:56:02;21.70;60.90
45060;DHT22;30799;49.060;9.312;2022-11-11T13:58:30;21.80;60.90
45060;DHT22;30799;49.060;9.312;2022-11-11T14:00:58;21.70;60.90
45060;DHT22;30799;49.060;9.312;2022-11-11T14:14:45;21.70;61.10
45060;DHT22;30799;49.060;9.312;2022-11-11T14:21:59;21.70;61.20
45060;DHT22;30799;49.060;9.312;2022-11-11T14:24:45;21.70;62.10
45060;DHT22;30799;49.060;9.312;2022-11-11T14:29:48;21.70;61.30
45060;DHT22;30799;49.060;9.312;2022-11-11T14:40:03;21.80;61.60
45060;DHT22;30799;49.060;9.312;2022-11-11T14:45:49;21.80;61.50
45060;DHT22;30799;49.060;9.312;2022-11-11T14:47:53;21.70;61.40
45060;DHT22;30799;49.060;9.312;2022-11-11T14:53:00;21.70;61.50
45060;DHT22;30799;49.060;9.312;2022-11-11T14:55:31;21.70;61.60
45060;DHT22;30799;49.060;9.312;2022-11-11T14:58:01;21.70;61.60
45060;DHT22;30799;49.060;9.312;2022-11-11T15:03:14;21.70;61.80
45060;DHT22;30799;49.060;9.312;2022-11-11T15:05:45;21.70;61.80
45060;DHT22;30799;49.060;9.312;2022-11-11T15:08:15;21.70;61.90
45060;DHT22;30799;49.060;9.312;2022-11-11T15:11:00;21.70;61.90
45060;DHT22;30799;49.060;9.312;2022-11-11T15:13:43;21.70;62.00
45060;DHT22;30799;49.060;9.312;2022-11-11T15:16:20;21.70;62.00
45060;DHT22;30799;49.060;9.312;2022-11-11T15:18:53;21.50;59.00
45060;DHT22;30799;49.060;9.312;2022-11-11T15:21:31;20.40;57.20
45060;DHT22;30799;49.060;9.312;2022-11-11T15:34:23;21.00;61.00
45060;DHT22;30799;49.060;9.312;2022-11-11T15:39:18;21.20;61.00
45060;DHT22;30799;49.060;9.312;2022-11-11T15:41:46;21.30;61.50
45060;DHT22;30799;49.060;9.312;2022-11-11T15:44:47;21.40;61.30
45060;DHT22;30799;49.060;9.312;2022-11-11T15:47:10;21.40;61.60
45060;DHT22;30799;49.060;9.312;2022-11-11T15:49:38;21.40;61.50
45060;DHT22;30799;49.060;9.312;2022-11-11T15:52:09;21.40;61.60
45060;DHT22;30799;49.060;9.312;2022-11-11T15:54:49;21.40;62.00
45060;DHT22;30799;49.060;9.312;2022-11-11T15:57:22;21.50;62.20
45060;DHT22;30799;49.060;9.312;2022-11-11T15:59:49;21.50;62.40
45060;DHT22;30799;49.060;9.312;2022-11-11T16:02:17;21.50;63.30
45060;DHT22;30799;49.060;9.312;2022-11-11T16:04:53;21.50;63.60
45060;DHT22;30799;49.060;9.312;2022-11-11T16:07:56;20.60;55.80
45060;DHT22;30799;49.060;9.312;2022-11-11T16:10:24;20.70;59.90
45060;DHT22;30799;49.060;9.312;2022-11-11T16:12:56;21.00;62.80
45060;DHT22;30799;49.060;9.312;2022-11-11T16:15:24;21.20;63.00
45060;DHT22;30799;49.060;9.312;2022-11-11T16:17:55;21.30;62.70
45060;DHT22;30799;49.060;9.312;2022-11-11T16:20:32;21.40;62.60
45060;DHT22;30799;49.060;9.312;2022-11-11T16:23:00;21.40;62.50
45060;DHT22;30799;49.060;9.312;2022-11-11T16:25:28;21.50;62.50
45060;DHT22;30799;49.060;9.312;2022-11-11T16:27:54;21.50;62.60
45060;DHT22;30799;49.060;9.312;2022-11-11T16:32:54;21.50;62.80
45060;DHT22;30799;49.060;9.312;2022-11-11T16:35:24;21.60;62.90
45060;DHT22;30799;49.060;9.312;2022-11-11T16:37:52;21.60;63.10
45060;DHT22;30799;49.060;9.312;2022-11-11T16:43:14;21.60;63.10
45060;DHT22;30799;49.060;9.312;2022-11-11T16:45:48;21.60;63.20
45060;DHT22;30799;49.060;9.312;2022-11-11T16:48:57;21.60;63.40
45060;DHT22;30799;49.060;9.312;2022-11-11T16:51:08;21.60;63.40
45060;DHT22;30799;49.060;9.312;2022-11-11T16:53:37;21.60;63.50
45060;DHT22;30799;49.060;9.312;2022-11-11T16:56:05;21.60;63.50
45060;DHT22;30799;49.060;9.312;2022-11-11T16:58:32;21.60;63.60
45060;DHT22;30799;49.060;9.312;2022-11-11T17:01:09;21.70;63.60
45060;DHT22;30799;49.060;9.312;2022-11-11T17:03:36;21.70;63.70
45060;DHT22;30799;49.060;9.312;2022-11-11T17:06:17;21.70;63.70
45060;DHT22;30799;49.060;9.312;2022-11-11T17:08:44;21.70;64.50
45060;DHT22;30799;49.060;9.312;2022-11-11T17:11:40;21.70;63.70
45060;DHT22;30799;49.060;9.312;2022-11-11T17:13:57;21.70;63.70
45060;DHT22;30799;49.060;9.312;2022-11-11T17:16:24;21.70;63.70
45060;DHT22;30799;49.060;9.312;2022-11-11T17:18:50;21.70;63.80
45060;DHT22;30799;49.060;9.312;2022-11-11T17:21:17;21.70;63.90
45060;DHT22;30799;49.060;9.312;2022-11-11T17:23:43;21.70;63.80
45060;DHT22;30799;49.060;9.312;2022-11-11T17:26:10;21.70;63.90
45060;DHT22;30799;49.060;9.312;2022-11-11T17:28:36;21.80;63.90
45060;DHT22;30799;49.060;9.312;2022-11-11T17:31:04;21.80;63.90
45060;DHT22;30799;49.060;9.312;2022-11-11T17:33:30;21.80;64.00
45060;DHT22;30799;49.060;9.312;2022-11-11T17:35:57;21.80;63.90
45060;DHT22;30799;49.060;9.312;2022-11-11T17:38:26;21.80;64.00
45060;DHT22;30799;49.060;9.312;2022-11-11T17:40:53;21.80;64.00
45060;DHT22;30799;49.060;9.312;2022-11-11T17:43:19;21.80;64.00
45060;DHT22;30799;49.060;9.312;2022-11-11T17:45:46;21.80;64.00
45060;DHT22;30799;49.060;9.312;2022-11-11T17:48:12;21.80;64.00
45060;DHT22;30799;49.060;9.312;2022-11-11T17:50:39;21.80;64.00
45060;DHT22;30799;49.060;9.312;2022-11-11T17:53:05;21.80;64.00
45060;DHT22;30799;49.060;9.312;2022-11-11T17:55:37;21.90;63.90
45060;DHT22;30799;49.060;9.312;2022-11-11T17:58:04;21.90;63.80
45060;DHT22;30799;49.060;9.312;2022-11-11T18:00:30;21.90;63.80
45060;DHT22;30799;49.060;9.312;2022-11-11T18:02:57;22.00;63.90
45060;DHT22;30799;49.060;9.312;2022-11-11T18:05:23;21.90;63.90
45060;DHT22;30799;49.060;9.312;2022-11-11T18:07:50;21.90;64.70
45060;DHT22;30799;49.060;9.312;2022-11-11T18:10:16;21.90;63.90
45060;DHT22;30799;49.060;9.312;2022-11-11T18:12:43;21.90;63.90
45060;DHT22;30799;49.060;9.312;2022-11-11T18:15:10;21.90;63.80